createdAt,value
2023-01-01T00:00:38.256Z,100153.53
2023-01-01T00:05:40.050Z,100147.06
2023-01-01T00:10:41.634Z,100153.09
2023-01-01T00:15:43.203Z,100137.00
2023-01-01T00:20:44.788Z,100131.13
2023-01-01T00:25:46.407Z,100136.59
2023-01-01T00:30:48.292Z,100140.75
2023-01-01T00:35:49.899Z,100137.63
2023-01-01T00:40:51.446Z,100155.53
2023-01-01T00:45:53.065Z,100160.03
2023-01-01T00:50:54.796Z,100160.34
2023-01-01T00:55:56.560Z,100164.44
2023-01-01T01:00:58.300Z,100163.16
2023-01-01T01:06:09.775Z,100164.16
2023-01-01T01:11:19.447Z,100173.72
2023-01-01T01:16:26.841Z,100180.53
2023-01-01T01:21:30.555Z,100191.78
2023-01-01T01:26:33.941Z,100200.63
2023-01-01T01:31:35.647Z,100207.50
2023-01-01T01:36:37.199Z,100198.47
2023-01-01T01:41:38.754Z,100209.53
2023-01-01T01:46:42.821Z,100210.34
2023-01-01T01:51:45.655Z,100205.13
2023-01-01T01:56:50.440Z,100211.94
2023-01-01T02:01:52.366Z,100210.66
2023-01-01T02:06:55.120Z,100199.84
2023-01-01T02:11:56.803Z,100199.28
2023-01-01T02:17:06.087Z,100194.88
2023-01-01T02:22:29.399Z,100202.81
2023-01-01T02:27:55.583Z,100192.06
2023-01-01T02:33:09.100Z,100193.09
2023-01-01T02:38:24.131Z,100197.28
2023-01-01T02:43:25.833Z,100190.59
2023-01-01T02:48:42.570Z,100205.97
2023-01-01T02:53:59.317Z,100202.53
2023-01-01T02:59:29.103Z,100198.91
2023-01-01T03:05:05.813Z,100200.31
2023-01-01T03:10:17.887Z,100200.19
2023-01-01T03:15:45.530Z,100197.59
2023-01-01T03:20:49.229Z,100188.09
2023-01-01T03:25:53.124Z,100195.16
2023-01-01T03:30:55.055Z,100187.69
2023-01-01T03:36:03.631Z,100187.06
2023-01-01T03:41:10.412Z,100184.09
2023-01-01T03:46:13.503Z,100183.44
2023-01-01T03:51:18.924Z,100206.22
2023-01-01T03:56:28.207Z,100191.00
2023-01-01T04:01:36.516Z,100194.47
2023-01-01T04:06:38.204Z,100188.44
2023-01-01T04:12:00.939Z,100198.50
2023-01-01T04:17:04.842Z,100193.28
2023-01-01T04:22:06.691Z,100191.97
2023-01-01T04:27:08.503Z,100198.50
2023-01-01T04:32:10.140Z,100200.25
2023-01-01T04:37:13.650Z,100205.78
2023-01-01T04:42:15.481Z,100218.91
2023-01-01T04:47:17.127Z,100220.28
2023-01-01T04:52:18.998Z,100217.28
2023-01-01T04:57:20.527Z,100221.28
2023-01-01T05:02:22.178Z,100221.72
2023-01-01T05:07:23.867Z,100214.19
2023-01-01T05:12:25.444Z,100223.78
2023-01-01T05:17:27.061Z,100227.16
2023-01-01T05:22:28.634Z,100221.00
2023-01-01T05:27:30.232Z,100216.00
2023-01-01T05:32:31.779Z,100229.56
2023-01-01T05:37:33.382Z,100222.94
2023-01-01T05:42:36.031Z,100232.06
2023-01-01T05:47:37.628Z,100231.09
2023-01-01T05:52:39.189Z,100227.91
2023-01-01T05:57:40.746Z,100223.69
2023-01-01T06:02:42.373Z,100220.25
2023-01-01T06:07:48.415Z,100222.16
2023-01-01T06:12:50.388Z,100234.50
2023-01-01T06:17:51.957Z,100239.38
2023-01-01T06:22:53.527Z,100243.63
2023-01-01T06:27:55.137Z,100248.22
2023-01-01T06:32:56.729Z,100252.78
2023-01-01T06:38:01.090Z,100258.28
2023-01-01T06:43:02.669Z,100255.22
2023-01-01T06:48:04.573Z,100250.56
2023-01-01T06:53:06.123Z,100269.66
2023-01-01T06:58:09.856Z,100274.22
2023-01-01T07:03:11.790Z,100289.13
2023-01-01T07:08:13.502Z,100286.44
2023-01-01T07:13:15.080Z,100292.84
2023-01-01T07:18:19.553Z,100296.97
2023-01-01T07:23:21.124Z,100308.16
2023-01-01T07:28:23.803Z,100308.16
2023-01-01T07:33:25.416Z,100327.06
2023-01-01T07:38:26.964Z,100343.81
2023-01-01T07:43:28.496Z,100352.72
2023-01-01T07:48:34.652Z,100361.22
2023-01-01T07:53:39.492Z,100370.63
2023-01-01T07:58:41.742Z,100368.75
2023-01-01T08:03:43.356Z,100390.38
2023-01-01T08:08:44.955Z,100402.00
2023-01-01T08:13:46.555Z,100393.34
2023-01-01T08:18:48.123Z,100408.06
2023-01-01T08:23:49.755Z,100399.13
2023-01-01T08:28:57.023Z,100392.16
2023-01-01T08:33:59.104Z,100397.56
2023-01-01T08:39:00.912Z,100409.28
2023-01-01T08:44:02.468Z,100427.19
2023-01-01T08:49:04.185Z,100429.31
2023-01-01T08:54:05.948Z,100420.50
2023-01-01T08:59:07.633Z,100426.81
2023-01-01T09:04:15.719Z,100428.44
2023-01-01T09:09:19.662Z,100438.84
2023-01-01T09:14:22.056Z,100454.47
2023-01-01T09:19:23.752Z,100459.88
2023-01-01T09:24:25.454Z,100462.38
2023-01-01T09:29:27.057Z,100476.16
2023-01-01T09:34:28.646Z,100497.91
2023-01-01T09:39:30.368Z,100488.09
2023-01-01T09:44:53.992Z,100485.50
2023-01-01T09:49:59.190Z,100489.69
2023-01-01T09:55:03.850Z,100472.63
2023-01-01T10:00:15.096Z,100477.50
2023-01-01T10:05:47.306Z,100471.53
2023-01-01T10:10:59.727Z,100484.47
2023-01-01T10:16:08.838Z,100481.56
2023-01-01T10:21:19.907Z,100477.09
2023-01-01T10:26:24.699Z,100476.25
2023-01-01T10:31:39.102Z,100477.19
2023-01-01T10:36:40.750Z,100485.19
2023-01-01T10:41:43.454Z,100495.63
2023-01-01T10:46:49.058Z,100487.13
2023-01-01T10:51:52.682Z,100469.03
2023-01-01T10:56:54.316Z,100472.00
2023-01-01T11:02:13.861Z,100464.34
2023-01-01T11:07:28.896Z,100480.84
2023-01-01T11:18:04.788Z,100479.44
2023-01-01T11:23:23.293Z,100470.41
2023-01-01T11:28:26.040Z,100477.56
2023-01-01T11:33:29.003Z,100466.09
2023-01-01T11:38:30.763Z,100450.69
2023-01-01T11:43:39.931Z,100436.56
2023-01-01T11:48:43.393Z,100434.50
2023-01-01T11:53:45.095Z,100440.63
2023-01-01T11:59:04.212Z,100436.25
2023-01-01T12:04:17.493Z,100427.53
2023-01-01T12:09:51.206Z,100427.97
2023-01-01T12:15:14.305Z,100437.72
2023-01-01T12:20:38.152Z,100437.09
2023-01-01T12:25:41.918Z,100426.25
2023-01-01T12:30:57.065Z,100437.94
2023-01-01T12:36:23.742Z,100442.75
2023-01-01T12:41:43.933Z,100423.06
2023-01-01T12:47:12.595Z,100442.50
2023-01-01T12:52:21.135Z,100448.75
2023-01-01T12:57:34.946Z,100430.44
2023-01-01T13:02:38.004Z,100423.28
2023-01-01T13:07:41.197Z,100416.19
2023-01-01T13:12:42.996Z,100413.84
2023-01-01T13:17:52.291Z,100411.47
2023-01-01T13:22:54.050Z,100411.41
2023-01-01T13:28:03.134Z,100422.81
2023-01-01T13:33:26.121Z,100425.03
2023-01-01T13:38:46.426Z,100429.75
2023-01-01T13:43:48.096Z,100436.00
2023-01-01T13:49:09.873Z,100442.16
2023-01-01T13:54:29.797Z,100446.91
2023-01-01T14:00:18.912Z,100460.00
2023-01-01T14:05:22.844Z,100471.50
2023-01-01T14:10:37.385Z,100473.63
2023-01-01T14:15:43.224Z,100493.16
2023-01-01T14:20:54.048Z,100491.56
2023-01-01T14:25:55.660Z,100506.13
2023-01-01T14:30:59.384Z,100511.03
2023-01-01T14:36:25.848Z,100511.81
2023-01-01T14:41:37.801Z,100519.44
2023-01-01T14:46:41.159Z,100522.06
2023-01-01T14:51:46.342Z,100538.47
2023-01-01T14:56:50.390Z,100539.47
2023-01-01T15:02:01.141Z,100541.56
2023-01-01T15:07:02.982Z,100538.91
2023-01-01T15:12:04.633Z,100544.03
2023-01-01T15:17:15.152Z,100549.44
2023-01-01T15:22:28.386Z,100550.94
2023-01-01T15:27:39.010Z,100547.13
2023-01-01T15:32:40.904Z,100538.78
2023-01-01T15:37:44.967Z,100542.06
2023-01-01T15:43:04.850Z,100547.81
2023-01-01T15:48:06.399Z,100539.66
2023-01-01T15:53:22.760Z,100549.94
2023-01-01T15:58:43.353Z,100561.88
2023-01-01T16:03:46.031Z,100562.94
2023-01-01T16:08:47.708Z,100562.63
2023-01-01T16:13:49.269Z,100551.16
2023-01-01T16:18:51.043Z,100548.44
2023-01-01T16:23:53.907Z,100549.75
2023-01-01T16:28:55.513Z,100549.16
2023-01-01T16:33:59.004Z,100549.47
2023-01-01T16:39:01.283Z,100554.03
2023-01-01T16:44:02.953Z,100549.53
2023-01-01T16:49:04.882Z,100544.47
2023-01-01T16:54:06.536Z,100550.13
2023-01-01T16:59:09.665Z,100550.63
2023-01-01T17:04:11.720Z,100543.53
2023-01-01T17:09:14.802Z,100549.28
2023-01-01T17:14:16.392Z,100552.28
2023-01-01T17:19:20.774Z,100549.78
2023-01-01T17:24:22.587Z,100546.78
2023-01-01T17:29:24.812Z,100538.00
2023-01-01T17:34:26.517Z,100545.09
2023-01-01T17:39:28.190Z,100556.72
2023-01-01T17:44:29.820Z,100555.41
2023-01-01T17:49:31.505Z,100552.88
2023-01-01T17:54:33.153Z,100551.50
2023-01-01T17:59:34.746Z,100559.06
2023-01-01T18:04:36.436Z,100560.06
2023-01-01T18:09:38.337Z,100569.22
2023-01-01T18:14:40.400Z,100577.97
2023-01-01T18:19:41.988Z,100561.75
2023-01-01T18:24:43.580Z,100570.88
2023-01-01T18:29:45.249Z,100576.06
2023-01-01T18:34:46.807Z,100570.41
2023-01-01T18:39:48.651Z,100574.25
2023-01-01T18:44:51.721Z,100574.41
2023-01-01T18:49:59.653Z,100572.56
2023-01-01T18:55:10.136Z,100564.75
2023-01-01T19:00:25.710Z,100575.22
2023-01-01T19:05:34.938Z,100563.09
2023-01-01T19:10:40.371Z,100568.78
2023-01-01T19:15:47.997Z,100565.06
2023-01-01T19:20:53.595Z,100564.06
2023-01-01T19:25:58.951Z,100571.47
2023-01-01T19:31:01.771Z,100577.56
2023-01-01T19:36:04.979Z,100570.13
2023-01-01T19:41:07.835Z,100569.59
2023-01-01T19:46:09.565Z,100567.78
2023-01-01T19:51:11.261Z,100574.84
2023-01-01T19:56:12.899Z,100576.84
2023-01-01T20:01:14.918Z,100563.59
2023-01-01T20:06:16.687Z,100559.03
2023-01-01T20:11:18.811Z,100557.34
2023-01-01T20:16:20.458Z,100549.94
2023-01-01T20:21:40.833Z,100547.25
2023-01-01T20:26:42.431Z,100539.69
2023-01-01T20:31:44.092Z,100539.56
2023-01-01T20:37:04.462Z,100541.31
2023-01-01T20:42:06.093Z,100536.56
2023-01-01T20:47:07.695Z,100526.84
2023-01-01T20:52:09.338Z,100521.66
2023-01-01T20:57:10.956Z,100523.69
2023-01-01T21:02:12.673Z,100513.63
2023-01-01T21:07:14.416Z,100517.53
2023-01-01T21:12:16.038Z,100512.00
2023-01-01T21:17:21.937Z,100500.84
2023-01-01T21:22:23.597Z,100487.88
2023-01-01T21:27:30.435Z,100495.50
2023-01-01T21:32:40.375Z,100493.31
2023-01-01T21:37:47.930Z,100482.75
2023-01-01T21:42:50.132Z,100472.06
2023-01-01T21:47:51.783Z,100468.53
2023-01-01T21:53:00.441Z,100448.97
2023-01-01T21:58:21.961Z,100455.63
2023-01-01T22:03:24.139Z,100456.44
2023-01-01T22:08:25.849Z,100442.63
2023-01-01T22:13:27.894Z,100441.81
2023-01-01T22:18:30.990Z,100433.44
2023-01-01T22:23:36.640Z,100442.22
2023-01-01T22:28:42.338Z,100433.44
2023-01-01T22:33:46.789Z,100424.41
2023-01-01T22:38:48.838Z,100425.72
2023-01-01T22:43:55.999Z,100420.50
2023-01-01T22:49:00.191Z,100425.03
2023-01-01T22:54:01.805Z,100421.50
2023-01-01T22:59:03.615Z,100424.19
2023-01-01T23:04:05.493Z,100409.31
2023-01-01T23:09:08.408Z,100412.56
2023-01-01T23:14:28.919Z,100404.09
2023-01-01T23:19:30.499Z,100401.00
2023-01-01T23:24:32.311Z,100389.78
2023-01-01T23:29:34.319Z,100395.06
2023-01-01T23:34:35.946Z,100376.56
2023-01-01T23:39:37.740Z,100367.63
2023-01-01T23:44:39.347Z,100365.34
2023-01-01T23:49:42.010Z,100372.41
2023-01-01T23:54:43.603Z,100368.72
2023-01-01T23:59:45.212Z,100363.19
